sensor_id;sensor_type;location;lat;lon;timestamp;temperature;humidity
6538;DHT22;3302;52.508;13.454;2023-01-08T00:00:48;8.20;99.90
6538;DHT22;3302;52.508;13.454;2023-01-08T00:03:14;8.20;99.90
6538;DHT22;3302;52.508;13.454;2023-01-08T00:05:41;8.10;99.90
6538;DHT22;3302;52.508;13.454;2023-01-08T00:08:07;8.10;99.90
6538;DHT22;3302;52.508;13.454;2023-01-08T00:10:36;8.10;99.90
6538;DHT22;3302;52.508;13.454;2023-01-08T00:13:02;8.10;99.90
6538;DHT22;3302;52.508;13.454;2023-01-08T00:15:29;8.10;99.90
6538;DHT22;3302;52.508;13.454;2023-01-08T00:17:58;8.00;99.90
6538;DHT22;3302;52.508;13.454;2023-01-08T00:20:24;8.00;99.90
6538;DHT22;3302;52.508;13.454;2023-01-08T00:22:50;7.90;99.90
6538;DHT22;3302;52.508;13.454;2023-01-08T00:25:17;7.90;99.90
6538;DHT22;3302;52.508;13.454;2023-01-08T00:27:43;7.90;99.90
6538;DHT22;3302;52.508;13.454;2023-01-08T00:30:09;7.90;99.90
6538;DHT22;3302;52.508;13.454;2023-01-08T00:32:36;7.80;99.90
6538;DHT22;3302;52.508;13.454;2023-01-08T00:35:02;7.80;99.90
6538;DHT22;3302;52.508;13.454;2023-01-08T00:37:28;7.80;99.90
6538;DHT22;3302;52.508;13.454;2023-01-08T00:39:53;7.80;99.90
6538;DHT22;3302;52.508;13.454;2023-01-08T00:42:19;7.80;99.90
6538;DHT22;3302;52.508;13.454;2023-01-08T00:44:45;7.70;99.90
6538;DHT22;3302;52.508;13.454;2023-01-08T00:47:11;7.70;99.90
6538;DHT22;3302;52.508;13.454;2023-01-08T00:49:37;7.70;99.90
6538;DHT22;3302;52.508;13.454;2023-01-08T00:52:03;7.70;99.90
6538;DHT22;3302;52.508;13.454;2023-01-08T00:54:29;7.70;99.90
6538;DHT22;3302;52.508;13.454;2023-01-08T00:56:55;7.60;99.90
6538;DHT22;3302;52.508;13.454;2023-01-08T00:59:21;7.60;99.90
6538;DHT22;3302;52.508;13.454;2023-01-08T01:01:47;7.60;99.90
6538;DHT22;3302;52.508;13.454;2023-01-08T01:04:13;7.50;99.90
6538;DHT22;3302;52.508;13.454;2023-01-08T01:06:41;7.50;99.90
6538;DHT22;3302;52.508;13.454;2023-01-08T01:09:07;7.50;99.90
6538;DHT22;3302;52.508;13.454;2023-01-08T01:11:33;7.50;99.90
6538;DHT22;3302;52.508;13.454;2023-01-08T01:14:00;7.40;99.90
6538;DHT22;3302;52.508;13.454;2023-01-08T01:16:26;7.50;99.90
6538;DHT22;3302;52.508;13.454;2023-01-08T01:18:52;7.40;99.90
6538;DHT22;3302;52.508;13.454;2023-01-08T01:21:25;7.40;99.90
6538;DHT22;3302;52.508;13.454;2023-01-08T01:24:02;7.40;99.90
6538;DHT22;3302;52.508;13.454;2023-01-08T01:26:29;7.30;99.90
6538;DHT22;3302;52.508;13.454;2023-01-08T01:28:56;7.30;99.90
6538;DHT22;3302;52.508;13.454;2023-01-08T01:31:23;7.30;99.90
6538;DHT22;3302;52.508;13.454;2023-01-08T01:33:50;7.30;99.90
6538;DHT22;3302;52.508;13.454;2023-01-08T01:36:17;7.20;99.90
6538;DHT22;3302;52.508;13.454;2023-01-08T01:38:45;7.20;99.90
6538;DHT22;3302;52.508;13.454;2023-01-08T01:43:46;7.20;99.90
6538;DHT22;3302;52.508;13.454;2023-01-08T01:49:05;7.20;99.90
6538;DHT22;3302;52.508;13.454;2023-01-08T01:51:32;7.10;99.90
6538;DHT22;3302;52.508;13.454;2023-01-08T01:54:00;7.10;99.90
6538;DHT22;3302;52.508;13.454;2023-01-08T01:56:28;7.10;99.90
6538;DHT22;3302;52.508;13.454;2023-01-08T01:58:54;7.00;99.90
6538;DHT22;3302;52.508;13.454;2023-01-08T02:01:21;7.00;99.90
6538;DHT22;3302;52.508;13.454;2023-01-08T02:03:47;7.00;99.90
6538;DHT22;3302;52.508;13.454;2023-01-08T02:06:40;7.00;99.90
6538;DHT22;3302;52.508;13.454;2023-01-08T02:09:21;7.00;99.90
6538;DHT22;3302;52.508;13.454;2023-01-08T02:11:52;7.00;99.90
6538;DHT22;3302;52.508;13.454;2023-01-08T02:15:11;6.90;99.90
6538;DHT22;3302;52.508;13.454;2023-01-08T02:20:20;6.90;99.90
6538;DHT22;3302;52.508;13.454;2023-01-08T02:26:04;6.80;99.90
6538;DHT22;3302;52.508;13.454;2023-01-08T02:28:37;6.80;99.90
6538;DHT22;3302;52.508;13.454;2023-01-08T02:31:05;6.80;99.90
6538;DHT22;3302;52.508;13.454;2023-01-08T02:33:31;6.80;99.90
6538;DHT22;3302;52.508;13.454;2023-01-08T02:42:06;6.60;99.90
6538;DHT22;3302;52.508;13.454;2023-01-08T02:47:26;6.60;99.90
6538;DHT22;3302;52.508;13.454;2023-01-08T02:50:03;6.50;99.90
6538;DHT22;3302;52.508;13.454;2023-01-08T02:52:32;6.50;99.90
6538;DHT22;3302;52.508;13.454;2023-01-08T02:55:01;6.50;99.90
6538;DHT22;3302;52.508;13.454;2023-01-08T02:57:28;6.50;99.90
6538;DHT22;3302;52.508;13.454;2023-01-08T02:59:56;6.50;99.90
6538;DHT22;3302;52.508;13.454;2023-01-08T03:02:24;6.40;99.90
6538;DHT22;3302;52.508;13.454;2023-01-08T03:04:54;6.40;99.90
6538;DHT22;3302;52.508;13.454;2023-01-08T03:07:22;6.40;99.90
6538;DHT22;3302;52.508;13.454;2023-01-08T03:09:48;6.40;99.90
6538;DHT22;3302;52.508;13.454;2023-01-08T03:12:31;6.30;99.90
6538;DHT22;3302;52.508;13.454;2023-01-08T03:15:04;6.30;99.90
6538;DHT22;3302;52.508;13.454;2023-01-08T03:17:36;6.30;99.90
6538;DHT22;3302;52.508;13.454;2023-01-08T03:20:08;6.30;99.90
6538;DHT22;3302;52.508;13.454;2023-01-08T03:22:38;6.30;99.90
6538;DHT22;3302;52.508;13.454;2023-01-08T03:25:06;6.30;99.90
6538;DHT22;3302;52.508;13.454;2023-01-08T03:27:37;6.30;99.90
6538;DHT22;3302;52.508;13.454;2023-01-08T03:30:06;6.30;99.90
6538;DHT22;3302;52.508;13.454;2023-01-08T03:32:33;6.20;99.90
6538;DHT22;3302;52.508;13.454;2023-01-08T03:35:00;6.20;99.90
6538;DHT22;3302;52.508;13.454;2023-01-08T03:37:30;6.20;99.90
6538;DHT22;3302;52.508;13.454;2023-01-08T03:40:03;6.20;99.90
6538;DHT22;3302;52.508;13.454;2023-01-08T03:42:31;6.20;99.90
6538;DHT22;3302;52.508;13.454;2023-01-08T03:44:58;6.20;99.90
6538;DHT22;3302;52.508;13.454;2023-01-08T03:47:26;6.10;99.90
6538;DHT22;3302;52.508;13.454;2023-01-08T03:49:55;6.10;99.90
6538;DHT22;3302;52.508;13.454;2023-01-08T03:52:24;6.10;99.90
6538;DHT22;3302;52.508;13.454;2023-01-08T03:54:50;6.10;99.90
6538;DHT22;3302;52.508;13.454;2023-01-08T03:57:16;6.10;99.90
6538;DHT22;3302;52.508;13.454;2023-01-08T03:59:42;6.00;99.90
6538;DHT22;3302;52.508;13.454;2023-01-08T04:02:08;6.00;99.90
6538;DHT22;3302;52.508;13.454;2023-01-08T04:04:34;6.10;99.90
6538;DHT22;3302;52.508;13.454;2023-01-08T04:06:59;6.10;99.90
6538;DHT22;3302;52.508;13.454;2023-01-08T04:09:25;6.10;99.90
6538;DHT22;3302;52.508;13.454;2023-01-08T04:11:51;6.10;99.90
6538;DHT22;3302;52.508;13.454;2023-01-08T04:14:17;6.10;99.90
6538;DHT22;3302;52.508;13.454;2023-01-08T04:16:44;6.10;99.90
6538;DHT22;3302;52.508;13.454;2023-01-08T04:19:10;6.10;99.90
6538;DHT22;3302;52.508;13.454;2023-01-08T04:21:37;6.00;99.90
6538;DHT22;3302;52.508;13.454;2023-01-08T04:24:03;6.10;99.90
6538;DHT22;3302;52.508;13.454;2023-01-08T04:26:29;6.10;99.90
6538;DHT22;3302;52.508;13.454;2023-01-08T04:28:55;6.00;99.90
6538;DHT22;3302;52.508;13.454;2023-01-08T04:31:21;6.00;99.90
6538;DHT22;3302;52.508;13.454;2023-01-08T04:33:47;6.10;99.90
6538;DHT22;3302;52.508;13.454;2023-01-08T04:36:13;6.10;99.90
6538;DHT22;3302;52.508;13.454;2023-01-08T04:38:39;6.10;99.90
6538;DHT22;3302;52.508;13.454;2023-01-08T04:41:05;6.10;99.90
6538;DHT22;3302;52.508;13.454;2023-01-08T04:43:31;6.10;99.90
6538;DHT22;3302;52.508;13.454;2023-01-08T04:46:01;6.10;99.90
6538;DHT22;3302;52.508;13.454;2023-01-08T04:48:28;6.00;99.90
6538;DHT22;3302;52.508;13.454;2023-01-08T04:50:57;6.10;99.90
6538;DHT22;3302;52.508;13.454;2023-01-08T04:53:22;6.10;99.90
6538;DHT22;3302;52.508;13.454;2023-01-08T04:55:48;6.10;99.90
6538;DHT22;3302;52.508;13.454;2023-01-08T04:58:14;6.00;99.90
6538;DHT22;3302;52.508;13.454;2023-01-08T05:00:40;6.00;99.90
6538;DHT22;3302;52.508;13.454;2023-01-08T05:03:06;6.10;99.90
6538;DHT22;3302;52.508;13.454;2023-01-08T05:05:33;6.10;99.90
6538;DHT22;3302;52.508;13.454;2023-01-08T05:07:59;6.10;99.90
6538;DHT22;3302;52.508;13.454;2023-01-08T05:10:24;6.10;99.90
6538;DHT22;3302;52.508;13.454;2023-01-08T05:12:50;6.10;99.90
6538;DHT22;3302;52.508;13.454;2023-01-08T05:15:16;6.10;99.90
6538;DHT22;3302;52.508;13.454;2023-01-08T05:17:42;6.10;99.90
6538;DHT22;3302;52.508;13.454;2023-01-08T05:20:08;6.10;99.90
6538;DHT22;3302;52.508;13.454;2023-01-08T05:22:34;6.10;99.90
6538;DHT22;3302;52.508;13.454;2023-01-08T05:25:00;6.20;99.90
6538;DHT22;3302;52.508;13.454;2023-01-08T05:27:27;6.20;99.90
6538;DHT22;3302;52.508;13.454;2023-01-08T05:29:53;6.20;99.90
6538;DHT22;3302;52.508;13.454;2023-01-08T05:32:19;6.20;99.90
6538;DHT22;3302;52.508;13.454;2023-01-08T05:34:45;6.20;99.90
6538;DHT22;3302;52.508;13.454;2023-01-08T05:37:11;6.10;99.90
6538;DHT22;3302;52.508;13.454;2023-01-08T05:39:37;6.10;99.90
6538;DHT22;3302;52.508;13.454;2023-01-08T05:42:03;6.10;99.90
6538;DHT22;3302;52.508;13.454;2023-01-08T05:44:29;6.20;99.90
6538;DHT22;3302;52.508;13.454;2023-01-08T05:46:55;6.20;99.90
6538;DHT22;3302;52.508;13.454;2023-01-08T05:49:22;6.20;99.90
6538;DHT22;3302;52.508;13.454;2023-01-08T05:51:49;6.20;99.90
6538;DHT22;3302;52.508;13.454;2023-01-08T05:54:15;6.30;99.90
6538;DHT22;3302;52.508;13.454;2023-01-08T05:56:41;6.20;99.90
6538;DHT22;3302;52.508;13.454;2023-01-08T05:59:12;6.30;99.90
6538;DHT22;3302;52.508;13.454;2023-01-08T06:01:38;6.30;99.90
6538;DHT22;3302;52.508;13.454;2023-01-08T06:04:04;6.30;99.90
6538;DHT22;3302;52.508;13.454;2023-01-08T06:06:30;6.30;99.90
6538;DHT22;3302;52.508;13.454;2023-01-08T06:08:56;6.30;99.90
6538;DHT22;3302;52.508;13.454;2023-01-08T06:11:21;6.30;99.90
6538;DHT22;3302;52.508;13.454;2023-01-08T06:13:47;6.30;99.90
6538;DHT22;3302;52.508;13.454;2023-01-08T06:16:13;6.40;99.90
6538;DHT22;3302;52.508;13.454;2023-01-08T06:18:39;6.40;99.90
6538;DHT22;3302;52.508;13.454;2023-01-08T06:21:05;6.40;99.90
6538;DHT22;3302;52.508;13.454;2023-01-08T06:23:31;6.40;99.90
6538;DHT22;3302;52.508;13.454;2023-01-08T06:25:59;6.40;99.90
6538;DHT22;3302;52.508;13.454;2023-01-08T06:28:25;6.40;99.90
6538;DHT22;3302;52.508;13.454;2023-01-08T06:30:51;6.40;99.90
6538;DHT22;3302;52.508;13.454;2023-01-08T06:33:18;6.50;99.90
6538;DHT22;3302;52.508;13.454;2023-01-08T06:35:44;6.50;99.90
6538;DHT22;3302;52.508;13.454;2023-01-08T06:38:09;6.50;99.90
6538;DHT22;3302;52.508;13.454;2023-01-08T06:40:35;6.50;99.90
6538;DHT22;3302;52.508;13.454;2023-01-08T06:43:02;6.50;99.90
6538;DHT22;3302;52.508;13.454;2023-01-08T06:45:28;6.50;99.90
6538;DHT22;3302;52.508;13.454;2023-01-08T06:47:54;6.50;99.90
6538;DHT22;3302;52.508;13.454;2023-01-08T06:50:20;6.60;99.90
6538;DHT22;3302;52.508;13.454;2023-01-08T06:52:53;6.60;99.90
6538;DHT22;3302;52.508;13.454;2023-01-08T06:55:20;6.60;99.90
6538;DHT22;3302;52.508;13.454;2023-01-08T06:57:46;6.60;99.90
6538;DHT22;3302;52.508;13.454;2023-01-08T07:00:12;6.60;99.90
6538;DHT22;3302;52.508;13.454;2023-01-08T07:02:38;6.70;99.90
6538;DHT22;3302;52.508;13.454;2023-01-08T07:05:04;6.70;99.90
6538;DHT22;3302;52.508;13.454;2023-01-08T07:07:30;6.70;99.90
6538;DHT22;3302;52.508;13.454;2023-01-08T07:09:55;6.80;99.90
6538;DHT22;3302;52.508;13.454;2023-01-08T07:12:21;6.80;99.90
6538;DHT22;3302;52.508;13.454;2023-01-08T07:14:47;6.80;99.90
6538;DHT22;3302;52.508;13.454;2023-01-08T07:17:13;6.80;99.90
6538;DHT22;3302;52.508;13.454;2023-01-08T07:19:39;6.90;99.90
6538;DHT22;3302;52.508;13.454;2023-01-08T07:22:04;6.80;99.90
6538;DHT22;3302;52.508;13.454;2023-01-08T07:24:30;6.80;99.90
6538;DHT22;3302;52.508;13.454;2023-01-08T07:26:56;6.90;99.90
6538;DHT22;3302;52.508;13.454;2023-01-08T07:29:22;6.90;99.90
6538;DHT22;3302;52.508;13.454;2023-01-08T07:31:48;6.80;99.90
6538;DHT22;3302;52.508;13.454;2023-01-08T07:34:14;6.80;99.90
6538;DHT22;3302;52.508;13.454;2023-01-08T07:36:39;6.90;99.90
6538;DHT22;3302;52.508;13.454;2023-01-08T07:39:05;6.90;99.90
6538;DHT22;3302;52.508;13.454;2023-01-08T07:41:31;6.90;99.90
6538;DHT22;3302;52.508;13.454;2023-01-08T07:43:57;6.90;99.90
6538;DHT22;3302;52.508;13.454;2023-01-08T07:46:23;6.90;99.90
6538;DHT22;3302;52.508;13.454;2023-01-08T07:48:48;6.90;99.90
6538;DHT22;3302;52.508;13.454;2023-01-08T07:51:14;6.90;99.90
6538;DHT22;3302;52.508;13.454;2023-01-08T07:53:40;7.00;99.90
6538;DHT22;3302;52.508;13.454;2023-01-08T07:56:08;7.00;99.90
6538;DHT22;3302;52.508;13.454;2023-01-08T07:58:35;7.00;99.90
6538;DHT22;3302;52.508;13.454;2023-01-08T08:01:01;7.10;99.90
6538;DHT22;3302;52.508;13.454;2023-01-08T08:03:27;7.10;99.90
6538;DHT22;3302;52.508;13.454;2023-01-08T08:05:53;7.10;99.90
6538;DHT22;3302;52.508;13.454;2023-01-08T08:08:19;7.10;99.90
6538;DHT22;3302;52.508;13.454;2023-01-08T08:10:45;7.10;99.90
6538;DHT22;3302;52.508;13.454;2023-01-08T08:13:12;7.10;99.90
6538;DHT22;3302;52.508;13.454;2023-01-08T08:15:38;7.20;99.90
6538;DHT22;3302;52.508;13.454;2023-01-08T08:18:05;7.10;99.90
6538;DHT22;3302;52.508;13.454;2023-01-08T08:20:31;7.10;99.90
6538;DHT22;3302;52.508;13.454;2023-01-08T08:23:05;7.10;99.90
6538;DHT22;3302;52.508;13.454;2023-01-08T08:25:31;7.10;99.90
6538;DHT22;3302;52.508;13.454;2023-01-08T08:27:57;7.10;99.90
6538;DHT22;3302;52.508;13.454;2023-01-08T08:30:23;7.10;99.90
6538;DHT22;3302;52.508;13.454;2023-01-08T08:32:50;7.10;99.90
6538;DHT22;3302;52.508;13.454;2023-01-08T08:35:15;7.10;99.90
6538;DHT22;3302;52.508;13.454;2023-01-08T08:37:41;7.10;99.90
6538;DHT22;3302;52.508;13.454;2023-01-08T08:40:07;7.10;99.90
6538;DHT22;3302;52.508;13.454;2023-01-08T08:42:33;7.20;99.90
6538;DHT22;3302;52.508;13.454;2023-01-08T08:44:59;7.20;99.90
6538;DHT22;3302;52.508;13.454;2023-01-08T08:47:25;7.20;99.90
6538;DHT22;3302;52.508;13.454;2023-01-08T08:49:51;7.30;99.90
6538;DHT22;3302;52.508;13.454;2023-01-08T08:52:17;7.30;99.90
6538;DHT22;3302;52.508;13.454;2023-01-08T08:54:42;7.30;99.90
6538;DHT22;3302;52.508;13.454;2023-01-08T08:57:08;7.30;99.90
6538;DHT22;3302;52.508;13.454;2023-01-08T08:59:35;7.30;99.90
6538;DHT22;3302;52.508;13.454;2023-01-08T09:02:01;7.40;99.90
6538;DHT22;3302;52.508;13.454;2023-01-08T09:04:31;7.40;99.90
6538;DHT22;3302;52.508;13.454;2023-01-08T09:06:58;7.40;99.90
6538;DHT22;3302;52.508;13.454;2023-01-08T09:09:24;7.50;99.90
6538;DHT22;3302;52.508;13.454;2023-01-08T09:11:51;7.50;99.90
6538;DHT22;3302;52.508;13.454;2023-01-08T09:14:17;7.50;99.90
6538;DHT22;3302;52.508;13.454;2023-01-08T09:16:42;7.50;99.90
6538;DHT22;3302;52.508;13.454;2023-01-08T09:19:09;7.60;99.90
6538;DHT22;3302;52.508;13.454;2023-01-08T09:21:35;7.60;99.90
6538;DHT22;3302;52.508;13.454;2023-01-08T09:24:01;7.70;99.90
6538;DHT22;3302;52.508;13.454;2023-01-08T09:26:27;7.70;99.90
6538;DHT22;3302;52.508;13.454;2023-01-08T09:28:57;7.70;99.90
6538;DHT22;3302;52.508;13.454;2023-01-08T09:31:23;7.70;99.90
6538;DHT22;3302;52.508;13.454;2023-01-08T09:33:49;7.70;99.90
6538;DHT22;3302;52.508;13.454;2023-01-08T09:36:15;7.70;99.90
6538;DHT22;3302;52.508;13.454;2023-01-08T09:38:41;7.70;99.90
6538;DHT22;3302;52.508;13.454;2023-01-08T09:41:23;7.80;99.90
6538;DHT22;3302;52.508;13.454;2023-01-08T09:43:53;7.80;99.90
6538;DHT22;3302;52.508;13.454;2023-01-08T09:46:23;7.70;99.90
6538;DHT22;3302;52.508;13.454;2023-01-08T09:48:51;7.80;99.90
6538;DHT22;3302;52.508;13.454;2023-01-08T09:51:19;7.80;99.90
6538;DHT22;3302;52.508;13.454;2023-01-08T09:53:51;7.80;99.90
6538;DHT22;3302;52.508;13.454;2023-01-08T09:56:18;7.80;99.90
6538;DHT22;3302;52.508;13.454;2023-01-08T10:01:17;7.90;99.90
6538;DHT22;3302;52.508;13.454;2023-01-08T10:03:50;7.90;99.90
6538;DHT22;3302;52.508;13.454;2023-01-08T10:06:17;7.90;99.90
6538;DHT22;3302;52.508;13.454;2023-01-08T10:08:43;7.90;99.90
6538;DHT22;3302;52.508;13.454;2023-01-08T10:11:11;7.90;99.90
6538;DHT22;3302;52.508;13.454;2023-01-08T10:13:39;7.90;99.90
6538;DHT22;3302;52.508;13.454;2023-01-08T10:16:07;7.90;99.90
6538;DHT22;3302;52.508;13.454;2023-01-08T10:18:34;7.90;99.90
6538;DHT22;3302;52.508;13.454;2023-01-08T10:21:00;7.90;99.90
6538;DHT22;3302;52.508;13.454;2023-01-08T10:23:25;7.90;99.90
6538;DHT22;3302;52.508;13.454;2023-01-08T10:28:20;7.90;99.90
6538;DHT22;3302;52.508;13.454;2023-01-08T10:30:46;7.90;99.90
6538;DHT22;3302;52.508;13.454;2023-01-08T10:33:19;7.80;99.90
6538;DHT22;3302;52.508;13.454;2023-01-08T10:35:51;7.80;99.90
6538;DHT22;3302;52.508;13.454;2023-01-08T10:38:47;7.80;99.90
6538;DHT22;3302;52.508;13.454;2023-01-08T10:41:14;7.80;99.90
6538;DHT22;3302;52.508;13.454;2023-01-08T10:43:54;7.80;99.90
6538;DHT22;3302;52.508;13.454;2023-01-08T10:46:36;7.80;99.90
6538;DHT22;3302;52.508;13.454;2023-01-08T10:49:12;7.80;99.90
6538;DHT22;3302;52.508;13.454;2023-01-08T10:51:49;7.80;99.90
6538;DHT22;3302;52.508;13.454;2023-01-08T10:54:27;7.80;99.90
6538;DHT22;3302;52.508;13.454;2023-01-08T10:56:55;7.80;99.90
6538;DHT22;3302;52.508;13.454;2023-01-08T10:59:22;7.70;99.90
6538;DHT22;3302;52.508;13.454;2023-01-08T11:01:49;7.70;99.90
6538;DHT22;3302;52.508;13.454;2023-01-08T11:04:22;7.70;99.90
6538;DHT22;3302;52.508;13.454;2023-01-08T11:06:48;7.80;99.90
6538;DHT22;3302;52.508;13.454;2023-01-08T11:09:22;7.70;99.90
6538;DHT22;3302;52.508;13.454;2023-01-08T11:11:48;7.70;99.90
6538;DHT22;3302;52.508;13.454;2023-01-08T11:14:52;7.70;99.90
6538;DHT22;3302;52.508;13.454;2023-01-08T11:17:11;7.70;99.90
6538;DHT22;3302;52.508;13.454;2023-01-08T11:19:37;7.70;99.90
6538;DHT22;3302;52.508;13.454;2023-01-08T11:22:22;7.80;99.90
6538;DHT22;3302;52.508;13.454;2023-01-08T11:24:52;7.80;99.90
6538;DHT22;3302;52.508;13.454;2023-01-08T11:27:33;7.80;99.90
6538;DHT22;3302;52.508;13.454;2023-01-08T11:30:04;7.80;99.90
6538;DHT22;3302;52.508;13.454;2023-01-08T11:33:01;7.80;99.90
6538;DHT22;3302;52.508;13.454;2023-01-08T11:35:41;7.90;99.90
6538;DHT22;3302;52.508;13.454;2023-01-08T11:38:11;7.90;99.90
6538;DHT22;3302;52.508;13.454;2023-01-08T11:40:51;7.90;99.90
6538;DHT22;3302;52.508;13.454;2023-01-08T11:43:29;7.90;99.90
6538;DHT22;3302;52.508;13.454;2023-01-08T11:51:16;7.90;99.90
6538;DHT22;3302;52.508;13.454;2023-01-08T12:13:04;8.10;99.90
6538;DHT22;3302;52.508;13.454;2023-01-08T12:21:15;8.30;99.90
6538;DHT22;3302;52.508;13.454;2023-01-08T12:34:46;8.20;99.90
6538;DHT22;3302;52.508;13.454;2023-01-08T12:37:44;8.30;99.90
6538;DHT22;3302;52.508;13.454;2023-01-08T12:40:18;8.20;99.90
6538;DHT22;3302;52.508;13.454;2023-01-08T12:42:46;8.30;99.90
6538;DHT22;3302;52.508;13.454;2023-01-08T12:48:02;8.40;99.90
6538;DHT22;3302;52.508;13.454;2023-01-08T12:50:33;8.30;99.90
6538;DHT22;3302;52.508;13.454;2023-01-08T13:03:28;8.40;99.90
6538;DHT22;3302;52.508;13.454;2023-01-08T13:06:12;8.40;99.90
6538;DHT22;3302;52.508;13.454;2023-01-08T13:08:40;8.40;99.90
6538;DHT22;3302;52.508;13.454;2023-01-08T13:11:09;8.40;99.90
6538;DHT22;3302;52.508;13.454;2023-01-08T13:13:40;8.40;99.90
6538;DHT22;3302;52.508;13.454;2023-01-08T13:18:36;8.50;99.90
6538;DHT22;3302;52.508;13.454;2023-01-08T13:21:04;8.50;99.90
6538;DHT22;3302;52.508;13.454;2023-01-08T13:23:32;8.50;99.90
6538;DHT22;3302;52.508;13.454;2023-01-08T13:26:01;8.50;99.90
6538;DHT22;3302;52.508;13.454;2023-01-08T13:28:42;8.50;99.90
6538;DHT22;3302;52.508;13.454;2023-01-08T13:31:25;8.50;99.90
6538;DHT22;3302;52.508;13.454;2023-01-08T13:33:53;8.50;99.90
6538;DHT22;3302;52.508;13.454;2023-01-08T13:36:25;8.50;99.90
6538;DHT22;3302;52.508;13.454;2023-01-08T13:44:41;8.40;99.90
6538;DHT22;3302;52.508;13.454;2023-01-08T13:47:18;8.40;99.90
6538;DHT22;3302;52.508;13.454;2023-01-08T13:49:49;8.40;99.90
6538;DHT22;3302;52.508;13.454;2023-01-08T13:52:40;8.40;99.90
6538;DHT22;3302;52.508;13.454;2023-01-08T13:57:42;8.20;99.90
6538;DHT22;3302;52.508;13.454;2023-01-08T14:00:21;8.30;99.90
6538;DHT22;3302;52.508;13.454;2023-01-08T14:02:48;8.20;99.90
6538;DHT22;3302;52.508;13.454;2023-01-08T14:05:28;8.20;99.90
6538;DHT22;3302;52.508;13.454;2023-01-08T14:07:55;8.20;99.90
6538;DHT22;3302;52.508;13.454;2023-01-08T14:10:22;8.20;99.90
6538;DHT22;3302;52.508;13.454;2023-01-08T14:12:48;8.20;99.90
6538;DHT22;3302;52.508;13.454;2023-01-08T14:15:26;8.10;99.90
6538;DHT22;3302;52.508;13.454;2023-01-08T14:17:54;8.10;99.90
6538;DHT22;3302;52.508;13.454;2023-01-08T14:20:35;8.10;99.90
6538;DHT22;3302;52.508;13.454;2023-01-08T14:23:11;8.10;99.90
6538;DHT22;3302;52.508;13.454;2023-01-08T14:25:40;8.10;99.90
6538;DHT22;3302;52.508;13.454;2023-01-08T14:28:11;8.10;99.90
6538;DHT22;3302;52.508;13.454;2023-01-08T14:30:47;8.00;99.90
6538;DHT22;3302;52.508;13.454;2023-01-08T14:33:12;8.00;99.90
6538;DHT22;3302;52.508;13.454;2023-01-08T14:35:39;8.10;99.90
6538;DHT22;3302;52.508;13.454;2023-01-08T14:38:05;8.10;99.90
6538;DHT22;3302;52.508;13.454;2023-01-08T14:40:35;8.10;99.90
6538;DHT22;3302;52.508;13.454;2023-01-08T14:43:09;8.70;99.90
6538;DHT22;3302;52.508;13.454;2023-01-08T14:45:37;9.10;99.90
6538;DHT22;3302;52.508;13.454;2023-01-08T14:48:27;8.80;99.90
6538;DHT22;3302;52.508;13.454;2023-01-08T14:51:04;8.60;99.90
6538;DHT22;3302;52.508;13.454;2023-01-08T14:53:35;8.50;99.90
6538;DHT22;3302;52.508;13.454;2023-01-08T14:56:03;8.40;99.90
6538;DHT22;3302;52.508;13.454;2023-01-08T14:58:36;8.10;99.90
6538;DHT22;3302;52.508;13.454;2023-01-08T15:01:07;7.90;99.90
6538;DHT22;3302;52.508;13.454;2023-01-08T15:03:37;7.90;99.90
6538;DHT22;3302;52.508;13.454;2023-01-08T15:06:04;7.80;99.90
6538;DHT22;3302;52.508;13.454;2023-01-08T15:08:37;7.90;99.90
6538;DHT22;3302;52.508;13.454;2023-01-08T15:13:35;7.80;99.90
6538;DHT22;3302;52.508;13.454;2023-01-08T15:16:31;7.80;99.90
6538;DHT22;3302;52.508;13.454;2023-01-08T15:19:03;7.70;99.90
6538;DHT22;3302;52.508;13.454;2023-01-08T15:21:30;7.80;99.90
6538;DHT22;3302;52.508;13.454;2023-01-08T15:23:57;7.80;99.90
6538;DHT22;3302;52.508;13.454;2023-01-08T15:26:24;7.70;99.90
6538;DHT22;3302;52.508;13.454;2023-01-08T15:28:59;7.70;99.90
6538;DHT22;3302;52.508;13.454;2023-01-08T15:34:10;7.70;99.90
6538;DHT22;3302;52.508;13.454;2023-01-08T15:36:36;7.70;99.90
6538;DHT22;3302;52.508;13.454;2023-01-08T15:39:02;7.70;99.90
6538;DHT22;3302;52.508;13.454;2023-01-08T15:41:35;7.70;99.90
6538;DHT22;3302;52.508;13.454;2023-01-08T15:44:20;7.70;99.90
6538;DHT22;3302;52.508;13.454;2023-01-08T15:46:46;7.60;99.90
6538;DHT22;3302;52.508;13.454;2023-01-08T15:49:12;7.70;99.90
6538;DHT22;3302;52.508;13.454;2023-01-08T15:51:42;7.60;99.90
6538;DHT22;3302;52.508;13.454;2023-01-08T15:54:12;7.60;99.90
6538;DHT22;3302;52.508;13.454;2023-01-08T15:56:38;7.60;99.90
6538;DHT22;3302;52.508;13.454;2023-01-08T15:59:04;7.60;99.90
6538;DHT22;3302;52.508;13.454;2023-01-08T16:01:31;7.60;99.90
6538;DHT22;3302;52.508;13.454;2023-01-08T16:03:57;7.60;99.90
6538;DHT22;3302;52.508;13.454;2023-01-08T16:06:23;7.70;99.90
6538;DHT22;3302;52.508;13.454;2023-01-08T16:08:49;7.60;99.90
6538;DHT22;3302;52.508;13.454;2023-01-08T16:11:18;7.70;99.90
6538;DHT22;3302;52.508;13.454;2023-01-08T16:13:45;7.70;99.90
6538;DHT22;3302;52.508;13.454;2023-01-08T16:16:14;7.70;99.90
6538;DHT22;3302;52.508;13.454;2023-01-08T16:18:40;7.60;99.90
6538;DHT22;3302;52.508;13.454;2023-01-08T16:21:07;7.70;99.90
6538;DHT22;3302;52.508;13.454;2023-01-08T16:23:35;7.70;99.90
6538;DHT22;3302;52.508;13.454;2023-01-08T16:26:05;7.70;99.90
6538;DHT22;3302;52.508;13.454;2023-01-08T16:28:31;7.70;99.90
6538;DHT22;3302;52.508;13.454;2023-01-08T16:30:57;7.70;99.90
6538;DHT22;3302;52.508;13.454;2023-01-08T16:33:23;7.70;99.90
6538;DHT22;3302;52.508;13.454;2023-01-08T16:36:03;7.70;99.90
6538;DHT22;3302;52.508;13.454;2023-01-08T16:38:30;7.70;99.90
6538;DHT22;3302;52.508;13.454;2023-01-08T16:40:56;7.70;99.90
6538;DHT22;3302;52.508;13.454;2023-01-08T16:43:23;7.70;99.90
6538;DHT22;3302;52.508;13.454;2023-01-08T16:45:49;7.70;99.90
6538;DHT22;3302;52.508;13.454;2023-01-08T16:48:15;7.70;99.90
6538;DHT22;3302;52.508;13.454;2023-01-08T16:50:42;7.60;99.90
6538;DHT22;3302;52.508;13.454;2023-01-08T16:53:08;7.70;99.90
6538;DHT22;3302;52.508;13.454;2023-01-08T16:55:38;7.70;99.90
6538;DHT22;3302;52.508;13.454;2023-01-08T16:58:05;7.70;99.90
6538;DHT22;3302;52.508;13.454;2023-01-08T17:00:35;7.70;99.90
6538;DHT22;3302;52.508;13.454;2023-01-08T17:03:02;7.70;99.90
6538;DHT22;3302;52.508;13.454;2023-01-08T17:05:29;7.70;99.90
6538;DHT22;3302;52.508;13.454;2023-01-08T17:07:55;7.60;99.90
6538;DHT22;3302;52.508;13.454;2023-01-08T17:10:22;7.60;99.90
6538;DHT22;3302;52.508;13.454;2023-01-08T17:12:48;7.60;99.90
6538;DHT22;3302;52.508;13.454;2023-01-08T17:15:14;7.60;99.90
6538;DHT22;3302;52.508;13.454;2023-01-08T17:17:40;7.60;99.90
6538;DHT22;3302;52.508;13.454;2023-01-08T17:20:07;7.60;99.90
6538;DHT22;3302;52.508;13.454;2023-01-08T17:22:33;7.60;99.90
6538;DHT22;3302;52.508;13.454;2023-01-08T17:24:59;7.60;99.90
6538;DHT22;3302;52.508;13.454;2023-01-08T17:27:25;7.60;99.90
6538;DHT22;3302;52.508;13.454;2023-01-08T17:29:51;7.60;99.90
6538;DHT22;3302;52.508;13.454;2023-01-08T17:32:16;7.50;99.90
6538;DHT22;3302;52.508;13.454;2023-01-08T17:34:42;7.50;99.90
6538;DHT22;3302;52.508;13.454;2023-01-08T17:37:08;7.50;99.90
6538;DHT22;3302;52.508;13.454;2023-01-08T17:39:34;7.50;99.90
6538;DHT22;3302;52.508;13.454;2023-01-08T17:42:00;7.40;99.90
6538;DHT22;3302;52.508;13.454;2023-01-08T17:44:44;7.40;99.90
6538;DHT22;3302;52.508;13.454;2023-01-08T17:47:10;7.40;99.90